Time;durP1;ratioP1;P1;durP2;ratioP2;P2;SDS_P1;SDS_P2;PMS_P1;PMS_P2;Temp;Humidity;BMP_temperature;BMP_pressure;BME280_temperature;BME280_humidity;BME280_pressure;Samples;Min_cycle;Max_cycle;Signal;HPM_P1;HPM_P2
2022/06/07 00:01:23;;;;;;;2.58;1.80;;;;;;;18.49;73.74;99291.44;5073671;28;20192;-84
2022/06/07 00:03:50;;;;;;;3.05;2.33;;;;;;;18.37;74.79;99295.34;5073065;28;20207;-84
2022/06/07 00:06:16;;;;;;;3.25;1.80;;;;;;;18.47;74.33;99307.06;5073490;28;20191;-84
2022/06/07 00:08:43;;;;;;;1.42;1.23;;;;;;;18.71;73.20;99296.53;5073710;28;20597;-83
2022/06/07 00:11:10;;;;;;;1.40;1.15;;;;;;;18.68;73.36;99296.84;5074629;28;20643;-84
2022/06/07 00:13:39;;;;;;;3.55;2.05;;;;;;;18.83;72.18;99294.50;5072218;28;20221;-83
2022/06/07 00:16:05;;;;;;;2.67;2.17;;;;;;;18.82;72.75;99290.09;5073465;28;20191;-83
2022/06/07 00:18:32;;;;;;;1.80;1.30;;;;;;;18.87;72.52;99298.66;5073244;28;20241;-84
2022/06/07 00:20:59;;;;;;;7.17;5.60;;;;;;;18.61;74.57;99294.84;5072978;28;20710;-83
2022/06/07 00:23:26;;;;;;;6.38;3.80;;;;;;;18.38;76.30;99295.19;5073163;28;20780;-83
2022/06/07 00:25:55;;;;;;;1.73;1.23;;;;;;;18.40;76.33;99295.91;5073013;28;20192;-84
2022/06/07 00:28:22;;;;;;;1.98;1.23;;;;;;;18.48;75.98;99287.84;5072293;28;20650;-84
2022/06/07 00:30:51;;;;;;;1.95;1.42;;;;;;;18.46;76.48;99291.75;5053017;28;20662;-84
2022/06/07 00:33:18;;;;;;;1.50;1.30;;;;;;;18.40;76.93;99295.91;5060361;28;20330;-83
2022/06/07 00:35:45;;;;;;;4.40;1.30;;;;;;;18.35;77.43;99279.13;5072971;28;20200;-84
2022/06/07 00:38:12;;;;;;;2.40;1.65;;;;;;;18.42;77.24;99290.31;5072321;28;20190;-83
2022/06/07 00:40:41;;;;;;;4.37;1.80;;;;;;;18.54;76.38;99292.72;5072418;28;20311;-83
2022/06/07 00:43:08;;;;;;;3.35;1.88;;;;;;;18.55;76.02;99283.53;5072722;28;20446;-83
2022/06/07 00:45:36;;;;;;;3.08;2.13;;;;;;;18.64;75.45;99278.22;5072116;28;20195;-83
2022/06/07 00:48:04;;;;;;;2.00;1.65;;;;;;;18.59;74.72;99278.66;5072602;28;20693;-83
2022/06/07 00:50:39;;;;;;;1.85;1.35;;;;;;;18.60;74.72;99276.78;5072577;28;20304;-83
2022/06/07 00:53:06;;;;;;;4.27;1.50;;;;;;;18.73;74.53;99283.63;5072428;28;20208;-84
2022/06/07 00:55:33;;;;;;;1.77;1.27;;;;;;;18.57;76.25;99275.22;5072550;28;20943;-83
2022/06/07 00:57:59;;;;;;;2.05;1.60;;;;;;;18.51;76.89;99276.66;5072646;28;20542;-84
2022/06/07 01:00:26;;;;;;;2.17;1.23;;;;;;;18.31;78.79;99270.38;5072205;28;20189;-83
2022/06/07 01:02:54;;;;;;;3.08;1.35;;;;;;;18.22;80.05;99273.97;5072575;28;20463;-83
2022/06/07 01:05:22;;;;;;;4.55;1.70;;;;;;;18.15;81.12;99272.00;5071985;28;20184;-83
2022/06/07 01:10:45;;;;;;;2.38;1.50;;;;;;;18.20;81.37;99267.81;5072030;28;20322;-84
2022/06/07 01:13:12;;;;;;;1.95;1.50;;;;;;;18.03;82.91;99250.38;5072478;28;20964;-84
2022/06/07 01:15:39;;;;;;;1.67;1.38;;;;;;;17.98;83.69;99257.28;5072623;28;20847;-83
2022/06/07 01:18:06;;;;;;;2.13;1.50;;;;;;;18.12;82.96;99251.34;5072695;28;20224;-84
2022/06/07 01:20:34;;;;;;;2.58;1.77;;;;;;;18.20;82.57;99258.78;5072641;28;20302;-84
2022/06/07 01:23:02;;;;;;;3.03;1.45;;;;;;;18.20;82.62;99253.34;5071981;28;20190;-83
2022/06/07 01:25:29;;;;;;;1.70;1.60;;;;;;;18.20;82.83;99256.06;5072153;28;20722;-84
2022/06/07 01:27:55;;;;;;;2.88;1.30;;;;;;;18.16;83.22;99250.06;5071993;28;20618;-84
2022/06/07 01:30:22;;;;;;;1.75;1.35;;;;;;;18.08;84.24;99252.66;5071710;28;20692;-84
2022/06/07 01:32:49;;;;;;;1.95;1.38;;;;;;;17.91;85.64;99254.25;5072273;28;20231;-85
2022/06/07 01:35:16;;;;;;;5.57;1.60;;;;;;;17.80;87.16;99257.09;5072094;28;20284;-84
2022/06/07 01:37:42;;;;;;;2.60;1.40;;;;;;;17.72;88.12;99247.75;5072352;28;21035;-84
2022/06/07 01:42:57;;;;;;;1.77;1.60;;;;;;;17.77;89.19;99249.19;5071153;28;20856;-83
2022/06/07 01:45:24;;;;;;;3.35;1.50;;;;;;;17.96;87.47;99256.56;5072164;28;20808;-84
2022/06/07 01:47:51;;;;;;;2.05;1.30;;;;;;;17.90;87.75;99249.78;5071672;28;20330;-83
2022/06/07 01:50:18;;;;;;;2.42;1.50;;;;;;;17.90;87.89;99256.09;5072144;28;20187;-83
2022/06/07 01:52:45;;;;;;;2.42;1.40;;;;;;;17.93;87.55;99249.50;5072278;28;21052;-83
2022/06/07 01:55:13;;;;;;;2.20;1.40;;;;;;;18.01;87.45;99252.38;5072220;28;20609;-83
2022/06/07 01:57:39;;;;;;;3.25;1.60;;;;;;;17.80;89.51;99244.34;5071926;28;20311;-83
2022/06/07 02:00:08;;;;;;;2.65;1.40;;;;;;;17.74;89.90;99244.91;5072175;28;20952;-84
2022/06/07 02:02:34;;;;;;;2.15;1.48;;;;;;;17.68;90.07;99243.63;5071065;28;20693;-84
2022/06/07 02:05:01;;;;;;;2.35;1.40;;;;;;;17.59;91.28;99247.22;5072090;28;20287;-84
2022/06/07 02:07:28;;;;;;;1.42;1.33;;;;;;;17.75;90.87;99248.47;5071824;28;20271;-83
2022/06/07 02:09:55;;;;;;;2.13;1.42;;;;;;;17.70;90.54;99247.06;5072053;28;20684;-83
2022/06/07 02:12:23;;;;;;;3.22;2.15;;;;;;;17.64;91.47;99250.34;5071549;28;20267;-83
2022/06/07 02:14:49;;;;;;;4.80;2.47;;;;;;;17.62;92.09;99246.91;5071777;28;20299;-84
2022/06/07 02:17:16;;;;;;;1.98;1.80;;;;;;;17.60;92.59;99253.50;5071544;28;20207;-83
2022/06/07 02:19:44;;;;;;;3.55;1.60;;;;;;;17.65;91.40;99246.63;5071822;28;20644;-84
2022/06/07 02:22:11;;;;;;;2.05;1.42;;;;;;;17.61;91.19;99244.31;5071375;28;20198;-83
2022/06/07 02:24:37;;;;;;;1.98;1.45;;;;;;;17.47;92.69;99238.28;5071170;28;20298;-84
2022/06/07 02:27:07;;;;;;;2.30;2.08;;;;;;;17.39;94.39;99237.28;5071668;28;20187;-83
2022/06/07 02:29:38;;;;;;;3.58;2.00;;;;;;;17.44;94.35;99237.72;5071354;28;20227;-84
2022/06/07 02:32:10;;;;;;;2.67;1.45;;;;;;;17.38;95.35;99236.44;5071207;28;20215;-84
2022/06/07 02:34:38;;;;;;;5.95;2.10;;;;;;;17.30;96.73;99241.72;5071775;28;20261;-83
2022/06/07 02:37:07;;;;;;;1.67;1.55;;;;;;;17.24;97.98;99231.41;5073375;28;20198;-84
2022/06/07 02:39:36;;;;;;;3.00;1.55;;;;;;;17.08;100.00;99231.94;5075432;28;20197;-84
2022/06/07 02:42:05;;;;;;;2.35;1.90;;;;;;;17.13;100.00;99235.09;5075006;28;20638;-84
2022/06/07 02:44:32;;;;;;;2.67;1.60;;;;;;;17.07;100.00;99231.09;5074691;28;20203;-84
2022/06/07 02:47:00;;;;;;;2.03;1.73;;;;;;;17.11;100.00;99230.81;5074822;28;20272;-83
2022/06/07 02:49:27;;;;;;;2.10;1.83;;;;;;;16.98;100.00;99231.94;5065502;28;20326;-84
2022/06/07 02:51:54;;;;;;;3.00;2.40;;;;;;;16.98;100.00;99233.75;5074673;28;20213;-84
2022/06/07 02:54:20;;;;;;;2.10;1.80;;;;;;;16.91;100.00;99236.19;5074980;28;20206;-84
2022/06/07 02:56:47;;;;;;;1.52;1.42;;;;;;;16.87;100.00;99240.19;5074639;28;20186;-84
2022/06/07 02:59:13;;;;;;;2.15;1.70;;;;;;;16.77;100.00;99234.66;5074632;28;20236;-84
2022/06/07 03:01:40;;;;;;;3.92;1.73;;;;;;;16.55;100.00;99235.75;5075091;28;20191;-84
2022/06/07 03:04:08;;;;;;;3.17;1.70;;;;;;;16.40;100.00;99231.66;5074169;28;20547;-84
2022/06/07 03:06:35;;;;;;;1.90;1.70;;;;;;;16.23;100.00;99231.25;5074753;28;20189;-83
2022/06/07 03:09:01;;;;;;;4.50;2.10;;;;;;;16.24;100.00;99238.44;5074495;28;20205;-84
2022/06/07 03:11:28;;;;;;;3.50;2.08;;;;;;;16.30;100.00;99231.59;5074427;28;20184;-84
2022/06/07 03:13:55;;;;;;;3.17;1.70;;;;;;;16.25;100.00;99236.56;5074463;28;20205;-83
2022/06/07 03:16:22;;;;;;;4.85;2.10;;;;;;;16.40;100.00;99231.66;5074153;28;20299;-83
2022/06/07 03:18:49;;;;;;;2.88;2.00;;;;;;;16.39;100.00;99240.78;5074237;28;20265;-83
2022/06/07 03:21:18;;;;;;;2.42;1.95;;;;;;;16.48;100.00;99234.53;5074406;28;20583;-84
2022/06/07 03:23:45;;;;;;;4.70;2.30;;;;;;;16.33;100.00;99242.22;5074012;28;20307;-83
2022/06/07 03:26:14;;;;;;;3.60;2.15;;;;;;;16.51;100.00;99236.13;5073974;28;20271;-83
2022/06/07 03:28:42;;;;;;;5.72;2.40;;;;;;;16.56;100.00;99247.47;5072923;28;20315;-84
2022/06/07 03:31:12;;;;;;;2.25;1.95;;;;;;;16.61;100.00;99245.19;5074376;28;20611;-83
2022/06/07 03:33:38;;;;;;;4.10;2.17;;;;;;;16.87;100.00;99248.34;5074245;28;20206;-84
2022/06/07 03:36:12;;;;;;;3.08;2.20;;;;;;;16.88;100.00;99255.50;5074771;28;20199;-83
2022/06/07 03:38:41;;;;;;;6.60;2.58;;;;;;;16.95;100.00;99253.94;5075236;28;20214;-83
2022/06/07 03:41:08;;;;;;;4.30;2.47;;;;;;;16.97;100.00;99253.81;5075073;28;20292;-82
2022/06/07 03:43:36;;;;;;;7.47;2.60;;;;;;;16.89;100.00;99254.50;5075044;28;20185;-84
2022/06/07 03:46:12;;;;;;;4.47;2.67;;;;;;;16.94;100.00;99237.78;5074333;28;20210;-83
2022/06/07 03:48:39;;;;;;;5.78;2.17;;;;;;;17.09;100.00;99245.41;5074289;28;20194;-83
2022/06/07 03:51:06;;;;;;;3.70;2.38;;;;;;;17.04;100.00;99249.53;5074128;28;20192;-82
2022/06/07 03:53:33;;;;;;;4.50;2.70;;;;;;;17.05;100.00;99248.56;5053610;28;20226;-83
2022/06/07 03:56:02;;;;;;;2.50;2.30;;;;;;;16.95;100.00;99250.38;5055804;28;20533;-83
2022/06/07 03:58:29;;;;;;;5.30;2.78;;;;;;;16.68;100.00;99249.94;5074343;28;20278;-83
2022/06/07 04:00:58;;;;;;;4.22;2.53;;;;;;;16.84;100.00;99254.91;5073692;28;20203;-84
2022/06/07 04:03:25;;;;;;;5.32;2.30;;;;;;;16.71;100.00;99251.56;5073852;28;20604;-84
2022/06/07 04:05:53;;;;;;;3.65;2.30;;;;;;;16.81;100.00;99252.47;5073873;28;20707;-83
2022/06/07 04:08:20;;;;;;;8.48;2.90;;;;;;;16.72;100.00;99242.38;5074020;28;20210;-84
2022/06/07 04:10:48;;;;;;;4.82;2.10;;;;;;;16.78;100.00;99243.69;5073176;28;20683;-82
2022/06/07 04:13:18;;;;;;;3.70;2.80;;;;;;;16.88;100.00;99244.63;5073117;28;20304;-83
2022/06/07 04:15:45;;;;;;;3.63;2.50;;;;;;;16.92;100.00;99251.50;5073026;28;20274;-84
2022/06/07 04:18:12;;;;;;;3.50;2.55;;;;;;;17.04;100.00;99264.00;5073113;28;20221;-84
2022/06/07 04:20:39;;;;;;;4.72;2.28;;;;;;;17.04;100.00;99250.38;5073452;28;20278;-84
2022/06/07 04:23:07;;;;;;;5.95;2.70;;;;;;;17.00;100.00;99253.53;5073017;28;20193;-85
2022/06/07 04:25:35;;;;;;;4.05;2.30;;;;;;;16.96;100.00;99254.78;5072598;28;20196;-84
2022/06/07 04:28:02;;;;;;;5.88;3.60;;;;;;;16.96;100.00;99254.78;5073055;28;20195;-83
2022/06/07 04:30:31;;;;;;;3.60;2.20;;;;;;;16.78;100.00;99250.00;5069333;28;20283;-83
2022/06/07 04:32:58;;;;;;;3.92;2.65;;;;;;;16.78;100.00;99255.44;5072574;28;20195;-83
2022/06/07 04:35:25;;;;;;;3.00;2.70;;;;;;;16.92;100.00;99254.22;5086094;28;20204;-83
2022/06/07 04:37:53;;;;;;;5.38;3.00;;;;;;;16.90;100.00;99256.22;5071455;28;20289;-81
2022/06/07 04:40:19;;;;;;;4.32;2.70;;;;;;;17.17;100.00;99262.91;5072672;28;20506;-82
2022/06/07 04:42:47;;;;;;;2.95;2.65;;;;;;;17.42;100.00;99262.34;5071907;28;20637;-82
2022/06/07 04:45:15;;;;;;;4.60;3.00;;;;;;;17.48;100.00;99260.94;5060988;28;20264;-81
2022/06/07 04:47:45;;;;;;;4.40;2.83;;;;;;;17.56;100.00;99261.09;5071589;28;20223;-82
2022/06/07 04:50:15;;;;;;;7.20;3.13;;;;;;;17.75;100.00;99278.44;5072413;28;20209;-83
2022/06/07 04:52:42;;;;;;;6.15;2.70;;;;;;;18.10;100.00;99267.00;5072622;28;20516;-81
2022/06/07 04:55:09;;;;;;;3.45;3.15;;;;;;;18.22;100.00;99271.25;5069933;28;20258;-83
2022/06/07 04:57:36;;;;;;;5.43;3.38;;;;;;;18.20;100.00;99277.88;5067499;28;20290;-85
2022/06/07 05:00:05;;;;;;;3.55;3.25;;;;;;;18.09;100.00;99268.88;5063836;28;20238;-82
2022/06/07 05:02:32;;;;;;;5.13;4.10;;;;;;;18.09;100.00;99279.75;5062788;28;20267;-83
2022/06/07 05:05:00;;;;;;;6.00;3.03;;;;;;;18.13;100.00;99280.31;5071987;28;20269;-82
2022/06/07 05:07:26;;;;;;;2.70;2.22;;;;;;;18.17;100.00;99275.44;5072305;28;20271;-83
2022/06/07 05:09:53;;;;;;;3.90;2.60;;;;;;;18.18;100.00;99288.94;5071268;28;20199;-85
2022/06/07 05:12:20;;;;;;;6.18;3.30;;;;;;;18.26;100.00;99286.31;5068288;28;20207;-83
2022/06/07 05:14:47;;;;;;;3.83;2.72;;;;;;;18.28;100.00;99287.03;5067161;28;20669;-84
2022/06/07 05:17:14;;;;;;;4.68;2.60;;;;;;;18.44;100.00;99289.16;5072717;28;20626;-85
2022/06/07 05:19:41;;;;;;;5.00;2.20;;;;;;;18.60;100.00;99287.69;5074534;28;20190;-85
2022/06/07 05:22:09;;;;;;;4.50;2.78;;;;;;;18.61;100.00;99293.00;5072271;28;20295;-84
2022/06/07 05:24:36;;;;;;;3.80;3.20;;;;;;;18.83;95.57;99299.13;5071986;28;20273;-85
2022/06/07 05:27:06;;;;;;;4.15;2.35;;;;;;;18.93;94.33;99289.91;5072912;28;20192;-85
2022/06/07 05:29:36;;;;;;;4.88;2.80;;;;;;;19.16;92.71;99281.31;5071717;28;20774;-84
2022/06/07 05:32:02;;;;;;;5.35;2.70;;;;;;;19.19;91.66;99286.47;5073465;28;20686;-85
2022/06/07 05:34:29;;;;;;;2.65;2.40;;;;;;;19.28;91.06;99285.53;5072116;28;20210;-84
2022/06/07 05:36:56;;;;;;;4.88;2.50;;;;;;;19.37;90.04;99283.75;5071919;28;20607;-84
2022/06/07 05:39:26;;;;;;;3.58;2.22;;;;;;;19.53;89.36;99281.22;5070690;28;20628;-82
2022/06/07 05:41:53;;;;;;;3.03;2.20;;;;;;;19.56;87.89;99288.25;5071411;28;20280;-84
2022/06/07 05:44:20;;;;;;;4.68;2.40;;;;;;;19.55;88.83;99292.84;5071345;28;20200;-83
2022/06/07 05:46:48;;;;;;;3.23;2.57;;;;;;;19.82;86.87;99287.53;5071344;28;20600;-81
2022/06/07 05:49:15;;;;;;;5.20;2.63;;;;;;;19.97;85.71;99299.63;5071323;28;20806;-82
2022/06/07 05:51:42;;;;;;;2.63;2.00;;;;;;;20.09;84.08;99292.03;5070730;28;20425;-83
2022/06/07 05:54:10;;;;;;;3.30;1.93;;;;;;;19.82;85.33;99298.44;5071277;28;20490;-82
2022/06/07 05:56:38;;;;;;;5.80;2.00;;;;;;;19.17;90.52;99303.00;5071160;28;20979;-81
2022/06/07 05:59:13;;;;;;;3.97;2.20;;;;;;;19.38;89.96;99300.00;5071328;28;20425;-81
2022/06/07 06:01:40;;;;;;;3.33;2.60;;;;;;;19.37;90.43;99295.53;5071021;28;20458;-82
2022/06/07 06:04:08;;;;;;;3.10;2.17;;;;;;;19.46;89.47;99292.91;5071072;28;21015;-82
2022/06/07 06:06:36;;;;;;;6.13;2.20;;;;;;;19.50;89.37;99297.06;5070991;28;20920;-82
2022/06/07 06:11:48;;;;;;;2.83;2.40;;;;;;;19.95;83.98;99296.19;5071643;28;20484;-81
2022/06/07 06:14:15;;;;;;;4.87;2.00;;;;;;;19.73;85.77;99292.88;5074908;28;20953;-82
2022/06/07 06:16:41;;;;;;;2.90;2.37;;;;;;;19.82;84.63;99290.25;5074383;28;20577;-82
2022/06/07 06:19:08;;;;;;;3.33;2.10;;;;;;;19.78;85.33;99293.28;5074744;28;20522;-81
2022/06/07 06:21:39;;;;;;;3.70;2.17;;;;;;;19.81;86.07;99296.72;5074754;28;20422;-81
2022/06/07 06:24:09;;;;;;;3.20;1.90;;;;;;;19.73;86.48;99295.63;5074504;28;20493;-81
2022/06/07 06:26:37;;;;;;;2.73;2.10;;;;;;;19.47;89.45;99291.88;5074897;28;20538;-82
2022/06/07 06:29:06;;;;;;;1.90;1.70;;;;;;;19.69;86.24;99286.00;5074329;28;20488;-82
2022/06/07 06:31:32;;;;;;;3.00;2.27;;;;;;;19.43;89.16;99290.50;5074492;28;20443;-81
2022/06/07 06:33:59;;;;;;;2.67;1.80;;;;;;;19.84;85.95;99288.22;5074532;28;20465;-82
2022/06/07 06:36:27;;;;;;;5.13;2.17;;;;;;;19.73;86.17;99286.56;5074543;28;20951;-82
2022/06/07 06:38:54;;;;;;;2.83;1.70;;;;;;;19.30;91.27;99293.59;5074483;28;20518;-82
2022/06/07 06:41:26;;;;;;;3.37;2.03;;;;;;;19.02;93.20;99303.66;5074455;28;20423;-82
2022/06/07 06:43:54;;;;;;;3.53;2.17;;;;;;;19.41;91.48;99289.78;5074366;28;20423;-82
2022/06/07 06:46:24;;;;;;;2.60;2.28;;;;;;;19.29;91.50;99303.66;5073993;28;20423;-82
2022/06/07 06:48:51;;;;;;;6.35;2.35;;;;;;;19.41;91.03;99301.56;5074856;28;20678;-83
2022/06/07 06:51:24;;;;;;;2.85;2.30;;;;;;;19.80;88.16;99306.78;5074632;28;20191;-82
2022/06/07 06:53:51;;;;;;;4.00;2.50;;;;;;;19.91;87.33;99301.09;5074275;28;20209;-82
2022/06/07 06:56:23;;;;;;;2.73;2.40;;;;;;;19.53;88.48;99300.31;5073997;28;20188;-82
2022/06/07 06:58:52;;;;;;;6.05;2.13;;;;;;;19.61;88.94;99299.56;5073973;28;20517;-81
2022/06/07 07:01:22;;;;;;;3.43;2.80;;;;;;;19.86;87.30;99306.19;5073693;28;20291;-81
2022/06/07 07:03:50;;;;;;;2.83;2.00;;;;;;;20.28;84.31;99299.19;5073919;28;20423;-82
2022/06/07 07:06:17;;;;;;;3.47;1.97;;;;;;;20.03;85.36;99303.59;5074032;28;20518;-83
2022/06/07 07:08:45;;;;;;;3.13;2.10;;;;;;;19.82;86.91;99304.75;5074158;28;20453;-82
2022/06/07 07:11:15;;;;;;;2.93;1.93;;;;;;;19.61;89.83;99299.56;5073713;28;20518;-82
2022/06/07 07:13:42;;;;;;;3.37;1.93;;;;;;;19.84;86.84;99296.41;5074256;28;20533;-81
2022/06/07 07:16:11;;;;;;;3.70;2.00;;;;;;;19.77;87.00;99301.66;5073911;28;20434;-82
2022/06/07 07:18:38;;;;;;;3.30;1.83;;;;;;;19.75;88.08;99309.13;5074007;28;20446;-82
2022/06/07 07:21:09;;;;;;;3.30;2.13;;;;;;;20.13;86.26;99304.38;5073787;28;20912;-82
2022/06/07 07:23:36;;;;;;;2.70;2.37;;;;;;;20.23;83.58;99310.59;5073372;28;20772;-82
2022/06/07 07:26:06;;;;;;;5.13;2.67;;;;;;;20.23;83.12;99309.75;5073280;28;20430;-82
2022/06/07 07:28:33;;;;;;;3.97;1.80;;;;;;;20.24;83.13;99308.72;5073125;28;20488;-82
2022/06/07 07:31:01;;;;;;;2.47;2.23;;;;;;;20.46;83.04;99308.22;5073314;28;20423;-82
2022/06/07 07:33:28;;;;;;;8.77;2.70;;;;;;;20.53;81.07;99303.84;5073323;28;20447;-83
2022/06/07 07:35:55;;;;;;;2.53;2.00;;;;;;;20.93;79.17;99304.28;5073255;28;20467;-82
2022/06/07 07:38:23;;;;;;;2.50;2.00;;;;;;;20.72;78.54;99308.25;5073640;28;20435;-82
2022/06/07 07:40:50;;;;;;;6.57;2.20;;;;;;;20.19;83.50;99301.00;5073191;28;20579;-82
2022/06/07 07:43:17;;;;;;;3.23;2.20;;;;;;;20.31;82.50;99294.28;5073465;28;20989;-83
2022/06/07 07:45:43;;;;;;;2.83;2.10;;;;;;;20.71;80.10;99305.69;5072592;28;20438;-82
2022/06/07 07:48:10;;;;;;;2.10;1.90;;;;;;;20.69;79.90;99296.78;5072950;28;20450;-82
2022/06/07 07:50:38;;;;;;;3.00;2.37;;;;;;;20.94;77.87;99292.28;5073174;28;20457;-82
2022/06/07 07:53:05;;;;;;;3.70;2.87;;;;;;;21.15;76.16;99297.38;5072754;28;20530;-83
2022/06/07 07:55:33;;;;;;;3.53;2.53;;;;;;;20.53;79.35;99298.38;5073131;28;20979;-81
2022/06/07 07:58:00;;;;;;;3.93;2.30;;;;;;;21.17;76.09;99298.06;5072848;28;20451;-81
2022/06/07 08:00:29;;;;;;;5.00;2.30;;;;;;;21.15;74.68;99295.50;5073145;28;20511;-81
2022/06/07 08:02:56;;;;;;;2.77;2.57;;;;;;;21.18;75.10;99294.28;5073214;28;20437;-82
2022/06/07 08:05:22;;;;;;;3.30;2.73;;;;;;;21.11;76.33;99285.03;5072751;28;20419;-81
2022/06/07 08:07:50;;;;;;;5.00;3.20;;;;;;;21.16;75.75;99290.88;5072611;28;20541;-82
2022/06/07 08:10:17;;;;;;;3.00;2.23;;;;;;;21.17;74.86;99289.84;5073020;28;20485;-82
2022/06/07 08:12:45;;;;;;;4.03;2.50;;;;;;;21.44;73.98;99289.63;5072463;28;20733;-82
2022/06/07 08:15:13;;;;;;;2.70;1.90;;;;;;;21.51;69.44;99286.25;5072567;28;20574;-81
2022/06/07 08:17:39;;;;;;;3.73;1.90;;;;;;;22.14;67.87;99276.53;5072261;28;20477;-82
2022/06/07 08:20:07;;;;;;;7.57;2.97;;;;;;;22.74;66.58;99283.56;5072573;28;21008;-82
2022/06/07 08:22:34;;;;;;;4.23;2.13;;;;;;;22.94;66.24;99279.38;5072807;28;20522;-82
2022/06/07 08:25:00;;;;;;;4.50;2.57;;;;;;;23.19;64.98;99273.81;5072223;28;20913;-82
2022/06/07 08:27:27;;;;;;;3.77;2.97;;;;;;;23.15;62.96;99286.19;5072579;28;20459;-82
2022/06/07 08:29:55;;;;;;;2.13;1.93;;;;;;;23.28;61.35;99279.09;5071755;28;20517;-82
2022/06/07 08:32:22;;;;;;;4.93;2.77;;;;;;;23.29;61.51;99274.44;5071975;28;20427;-82
2022/06/07 08:37:41;;;;;;;2.40;2.10;;;;;;;22.84;63.22;99276.00;5024772;28;20434;-82
2022/06/07 08:40:12;;;;;;;3.77;2.43;;;;;;;23.58;59.41;99262.78;5072059;28;20519;-82
2022/06/07 08:42:48;;;;;;;2.50;1.90;;;;;;;23.69;57.67;99262.38;5071769;28;20514;-83
2022/06/07 08:45:22;;;;;;;3.10;2.03;;;;;;;23.16;60.11;99257.72;5071700;28;20430;-83
2022/06/07 08:47:52;;;;;;;4.23;2.30;;;;;;;23.55;58.96;99262.31;5071831;28;20514;-82
2022/06/07 08:50:22;;;;;;;3.27;1.90;;;;;;;23.26;59.59;99258.34;5071718;28;20517;-82
2022/06/07 08:52:51;;;;;;;5.33;1.90;;;;;;;22.45;61.50;99268.50;5071794;28;20453;-82
2022/06/07 08:55:20;;;;;;;4.70;2.13;;;;;;;21.93;65.70;99266.94;5072269;28;20498;-82
2022/06/07 08:57:54;;;;;;;4.37;2.10;;;;;;;21.78;67.82;99261.28;5071787;28;20439;-82
2022/06/07 09:00:26;;;;;;;3.10;2.27;;;;;;;22.18;66.89;99267.84;5071543;28;20469;-83
2022/06/07 09:03:14;;;;;;;3.87;2.30;;;;;;;21.83;69.03;99272.59;5072207;28;20944;-82
2022/06/07 09:05:41;;;;;;;3.63;2.60;;;;;;;21.79;69.31;99270.38;5071911;28;20429;-82
2022/06/07 09:08:09;;;;;;;2.43;1.80;;;;;;;21.55;68.33;99273.91;5071227;28;20415;-82
2022/06/07 09:13:24;;;;;;;3.83;2.20;;;;;;;21.28;72.44;99264.91;5071310;28;20460;-82
2022/06/07 09:15:55;;;;;;;3.80;2.30;;;;;;;21.19;74.61;99271.38;5071685;28;20502;-82
2022/06/07 09:18:27;;;;;;;7.20;2.50;;;;;;;21.34;74.57;99260.66;5071690;28;20506;-81
2022/06/07 09:20:57;;;;;;;3.13;2.63;;;;;;;21.42;74.38;99269.78;5071486;28;20837;-82
2022/06/07 09:23:28;;;;;;;4.87;2.83;;;;;;;21.53;73.87;99267.75;5071267;28;20415;-81
2022/06/07 09:25:57;;;;;;;4.43;2.67;;;;;;;21.51;74.18;99267.06;5071227;28;20950;-81
2022/06/07 09:28:27;;;;;;;5.10;2.50;;;;;;;21.37;74.02;99271.25;5071561;28;20915;-81
2022/06/07 09:31:05;;;;;;;2.97;2.10;;;;;;;21.61;73.95;99267.75;5071950;28;20744;-82
2022/06/07 09:33:34;;;;;;;4.70;2.50;;;;;;;21.49;72.99;99272.72;5071777;28;20429;-80
2022/06/07 09:36:06;;;;;;;4.70;2.20;;;;;;;21.45;74.27;99266.69;5071889;28;20921;-82
2022/06/07 09:38:37;;;;;;;3.37;3.07;;;;;;;22.34;69.84;99275.22;5071040;28;20490;-83
2022/06/07 09:43:55;;;;;;;3.00;2.30;;;;;;;22.89;64.88;99268.06;5070896;28;20904;-82
2022/06/07 09:46:26;;;;;;;2.40;2.20;;;;;;;23.00;63.83;99270.47;5073842;28;20437;-82
2022/06/07 09:48:53;;;;;;;5.00;2.17;;;;;;;22.90;64.15;99267.03;5075730;28;20824;-82
2022/06/07 09:51:22;;;;;;;2.73;2.43;;;;;;;23.28;62.65;99250.78;5074905;28;20433;-81
2022/06/07 09:54:01;;;;;;;2.70;1.63;;;;;;;22.96;64.25;99258.09;5075361;28;20517;-82
2022/06/07 09:56:38;;;;;;;2.27;1.80;;;;;;;23.55;61.65;99240.31;5075408;28;20653;-82
2022/06/07 09:59:26;;;;;;;3.90;2.40;;;;;;;24.04;59.22;99251.00;5075422;28;20889;-82
2022/06/07 10:02:00;;;;;;;5.00;2.27;;;;;;;23.90;59.51;99250.75;5075272;28;20522;-82
2022/06/07 10:04:35;;;;;;;3.60;2.40;;;;;;;23.70;59.17;99246.75;5074985;28;20462;-82
2022/06/07 10:07:08;;;;;;;6.83;2.53;;;;;;;24.37;57.91;99246.03;5075216;28;20514;-82
2022/06/07 10:10:01;;;;;;;3.53;2.80;;;;;;;24.43;55.98;99247.22;5074695;28;20433;-82
2022/06/07 10:12:35;;;;;;;5.43;2.43;;;;;;;24.00;57.43;99245.00;5075185;28;20518;-82
2022/06/07 10:15:18;;;;;;;2.57;2.20;;;;;;;23.15;61.41;99231.28;5075117;28;21040;-82
2022/06/07 10:17:58;;;;;;;2.17;1.97;;;;;;;23.42;60.57;99235.41;5074893;28;20454;-82
2022/06/07 10:20:39;;;;;;;3.43;2.33;;;;;;;23.48;61.56;99227.31;5075091;28;20458;-82
2022/06/07 10:23:22;;;;;;;4.77;3.47;;;;;;;23.87;59.79;99226.38;5074751;28;20418;-83
2022/06/07 10:26:01;;;;;;;2.80;2.10;;;;;;;23.90;58.91;99219.66;5074449;28;20419;-83
2022/06/07 10:28:35;;;;;;;2.80;2.33;;;;;;;23.34;59.90;99224.47;5074404;28;20577;-83
2022/06/07 10:31:10;;;;;;;2.40;2.20;;;;;;;24.01;57.94;99210.09;5074785;28;20422;-83
2022/06/07 10:33:50;;;;;;;4.13;2.87;;;;;;;24.26;57.24;99217.13;5074604;28;20513;-82
2022/06/07 10:36:30;;;;;;;4.97;2.80;;;;;;;24.51;56.08;99209.50;5074341;28;20502;-82
2022/06/07 10:39:15;;;;;;;3.07;2.60;;;;;;;24.44;56.16;99205.72;5071937;28;20543;-82
2022/06/07 10:41:54;;;;;;;3.53;3.23;;;;;;;24.47;56.11;99208.16;5074287;28;20433;-82
2022/06/07 10:44:30;;;;;;;3.00;2.70;;;;;;;24.35;55.55;99202.22;5074309;28;20454;-82
2022/06/07 10:46:58;;;;;;;3.90;2.83;;;;;;;24.53;53.92;99201.91;5074049;28;20425;-82
2022/06/07 10:49:35;;;;;;;2.77;2.10;;;;;;;25.09;51.67;99197.78;5074225;28;20840;-82
2022/06/07 10:52:24;;;;;;;5.27;2.10;;;;;;;25.39;50.66;99193.06;5074359;28;20499;-82
2022/06/07 10:55:01;;;;;;;2.57;1.70;;;;;;;25.50;49.83;99191.72;5074157;28;20431;-82
2022/06/07 10:57:36;;;;;;;3.43;2.57;;;;;;;24.89;51.89;99184.59;5073275;28;20924;-81
2022/06/07 11:00:19;;;;;;;3.67;2.60;;;;;;;24.94;51.68;99186.78;5075928;28;20884;-79
2022/06/07 11:02:56;;;;;;;5.07;3.20;;;;;;;24.12;54.03;99190.41;5076194;28;20554;-78
2022/06/07 11:11:19;;;;;;;2.87;2.20;;;;;;;24.44;52.54;99182.88;5075241;28;20481;-79
2022/06/07 11:14:03;;;;;;;2.43;2.10;;;;;;;24.37;54.00;99181.91;5075732;28;20501;-79
2022/06/07 11:16:37;;;;;;;3.83;2.73;;;;;;;24.45;54.71;99184.59;5075636;28;20471;-79
2022/06/07 11:19:04;;;;;;;3.17;2.23;;;;;;;23.99;56.13;99180.03;5075009;28;20518;-79
2022/06/07 11:21:35;;;;;;;5.00;3.00;;;;;;;23.76;57.38;99177.31;5075014;28;20510;-79
2022/06/07 11:24:18;;;;;;;2.43;2.17;;;;;;;24.06;56.65;99177.41;5075041;28;20429;-79
2022/06/07 11:27:15;;;;;;;2.70;2.50;;;;;;;24.71;55.17;99173.97;5074967;28;20446;-80
2022/06/07 11:29:42;;;;;;;3.60;2.03;;;;;;;24.98;53.32;99179.84;5074434;28;21046;-79
2022/06/07 11:32:49;;;;;;;2.43;2.10;;;;;;;24.90;53.28;99171.69;5074697;28;20466;-80
2022/06/07 11:35:45;;;;;;;3.37;2.33;;;;;;;24.19;55.91;99163.88;5075055;28;20506;-80
2022/06/07 11:38:32;;;;;;;2.77;2.57;;;;;;;24.31;56.12;99170.63;5070088;28;20914;-81
2022/06/07 11:41:40;;;;;;;5.80;3.47;;;;;;;24.31;56.22;99167.88;5054526;28;20515;-79
2022/06/07 11:44:34;;;;;;;5.67;4.00;;;;;;;24.44;56.33;99155.34;5050750;28;20954;-80
2022/06/07 11:47:20;;;;;;;5.93;2.93;;;;;;;24.37;57.05;99160.75;5054891;28;20511;-79
2022/06/07 11:50:12;;;;;;;4.13;3.00;;;;;;;24.80;55.46;99149.09;5054495;28;20519;-80
2022/06/07 11:52:57;;;;;;;5.63;3.00;;;;;;;25.03;54.75;99159.97;5052834;28;20447;-79
2022/06/07 11:55:27;;;;;;;2.17;1.97;;;;;;;24.92;55.46;99155.84;5054191;28;20467;-80
2022/06/07 11:58:03;;;;;;;4.43;3.40;;;;;;;25.61;53.53;99157.28;5053715;28;20434;-81
2022/06/07 12:00:45;;;;;;;2.50;1.97;;;;;;;24.98;53.45;99142.13;5054097;28;20420;-81
2022/06/07 12:03:34;;;;;;;4.03;2.33;;;;;;;25.77;49.69;99151.47;5053932;28;20519;-80
2022/06/07 12:06:21;;;;;;;2.40;2.20;;;;;;;25.79;49.74;99149.38;5053717;28;20420;-80
2022/06/07 12:09:05;;;;;;;2.20;1.73;;;;;;;25.15;52.15;99152.94;5053214;28;20448;-82